Sauk Centre, MN

5:11 AM CST on December 16, 2019 (GMT -0600)
Sauk Centre

Weather History for KD39 - September, 2019

Change the Weather History Date:

Tuesday, September 10, 2019

  Actual Average (KGHW) Record (KGHW)
Temperature  
Mean Temperature 64 °F -  
Max Temperature 70 °F 73 °F 93 °F (1998)
Min Temperature 58 °F 48 °F 35 °F (1959)
Growing Degree Days 14 (Base 50)    
Moisture  
Dew Point 61 °F    
Average Humidity 86    
Maximum Humidity 97    
Minimum Humidity 67    
Precipitation  
Precipitation 0.00 in - - ()
Sea Level Pressure  
Sea Level Pressure 29.94 in    
Wind  
Wind Speed 8 mph ()    
Max Wind Speed 16 mph    
Max Gust Speed 21 mph    
Visibility 9.7 miles    
Events      
Averages and records for this station are not official NWS values.
T = Trace of Precipitation, MM = Missing Value Source: Averaged Metar Reports

Daily Weather History Graph

Daily Weather History Graph

Search for Another Location

Airport or City:

Astronomy

Sep. 10, 2019 Rise Set
Actual Time 6:51 AM CDT 7:40 PM CDT
Civil Twilight 6:21 AM CDT 8:11 PM CDT
Nautical Twilight 5:45 AM CDT 8:46 PM CDT
Astronomical Twilight 5:07 AM CDT 9:24 PM CDT
Moon 6:29 PM CDT (9/10) 3:04 AM CDT (9/10)
Length of Visible Light 13h 49m
Length of Day
12h 49m
Waxing Gibbous, 89% of the Moon is Illuminated
Sep 10
Waxing Gibbous
Sep 13
Full
Sep 21
Last Quarter
Sep 28
New
Oct 5
First Quarter

Hourly Weather History & Observations

Time (CDT) Temp. Dew Point Humidity Pressure Visibility Wind Dir Wind Speed Gust Speed Precip Events Conditions
12:15 AM 65.3 °F 64.2 °F 96% 29.78 in 10.0 mi West 8.1 mph - N/A   Overcast
12:16 AM 65.7 °F 64.6 °F 96% 29.78 in 10.0 mi West 5.8 mph - N/A   Overcast
12:39 AM 66.9 °F 64.9 °F 93% 29.77 in 10.0 mi SSW 4.6 mph - N/A   Overcast
1:16 AM 68.4 °F 66.7 °F 95% 29.76 in 10.0 mi South 6.9 mph - N/A   Overcast
1:35 AM 68.2 °F 67.1 °F 96% 29.76 in 10.0 mi South 8.1 mph - N/A   Overcast
1:36 AM 68.2 °F 67.1 °F 96% 29.76 in 10.0 mi South 8.1 mph - N/A   Overcast
1:55 AM 68.2 °F 66.7 °F 95% 29.77 in 10.0 mi SSW 6.9 mph - N/A   Overcast
1:59 AM 68.0 °F 66.7 °F 96% 29.77 in 10.0 mi SSW 8.1 mph - N/A   Overcast
2:17 AM 68.0 °F 66.6 °F 95% 29.77 in 10.0 mi SSW 9.2 mph - N/A   Overcast
2:35 AM 68.0 °F 66.6 °F 95% 29.77 in 10.0 mi SW 10.4 mph - N/A   Overcast
2:55 AM 68.0 °F 66.6 °F 95% 29.77 in 10.0 mi WSW 12.7 mph - N/A   Overcast
2:56 AM 68.0 °F 66.6 °F 95% 29.77 in 10.0 mi WSW 11.5 mph - N/A   Overcast
3:15 AM 67.6 °F 66.2 °F 95% 29.77 in 10.0 mi West 11.5 mph 16.1 mph N/A   Overcast
3:16 AM 67.6 °F 66.2 °F 95% 29.77 in 10.0 mi West 12.7 mph 16.1 mph N/A   Overcast
3:37 AM 66.9 °F 65.5 °F 95% 29.77 in 10.0 mi West 11.5 mph 16.1 mph N/A   Mostly Cloudy
3:55 AM 66.0 °F 64.8 °F 96% 29.78 in 10.0 mi West 10.4 mph - N/A   Scattered Clouds
4:15 AM 64.9 °F 64.0 °F 97% 29.79 in 10.0 mi West 8.1 mph - N/A   Clear
4:16 AM 64.9 °F 64.0 °F 97% 29.79 in 10.0 mi West 10.4 mph - N/A   Clear
4:35 AM 64.4 °F 63.5 °F 97% 29.80 in 10.0 mi West 12.7 mph 17.3 mph N/A   Scattered Clouds
4:36 AM 64.4 °F 63.5 °F 97% 29.80 in 10.0 mi West 11.5 mph 17.3 mph N/A   Scattered Clouds
4:55 AM 64.4 °F 63.0 °F 95% 29.81 in 10.0 mi West 6.9 mph - N/A   Mostly Cloudy
4:56 AM 64.4 °F 63.1 °F 96% 29.81 in 10.0 mi West 8.1 mph - N/A   Mostly Cloudy
5:17 AM 64.6 °F 63.1 °F 95% 29.82 in 10.0 mi West 10.4 mph 17.3 mph N/A   Overcast
5:36 AM 64.4 °F 63.0 °F 95% 29.83 in 10.0 mi West 11.5 mph - N/A   Overcast
5:55 AM 63.9 °F 62.6 °F 96% 29.83 in 10.0 mi West 11.5 mph 18.4 mph N/A   Overcast
5:56 AM 63.9 °F 62.6 °F 96% 29.84 in 10.0 mi West 11.5 mph - N/A   Overcast
6:15 AM 63.5 °F 62.1 °F 95% 29.85 in 10.0 mi West 12.7 mph - N/A   Overcast
6:16 AM 63.5 °F 62.1 °F 95% 29.85 in 10.0 mi West 13.8 mph 19.6 mph N/A   Overcast
6:38 AM 63.1 °F 61.3 °F 94% 29.86 in 10.0 mi West 16.1 mph 20.7 mph N/A   Overcast
7:16 AM 61.9 °F 60.8 °F 96% 29.87 in 7.0 mi West 6.9 mph - N/A   Overcast
7:36 AM 61.3 °F 60.4 °F 97% 29.89 in 2.5 mi West 9.2 mph - N/A   Overcast
7:55 AM 60.8 °F 59.9 °F 97% 29.89 in 7.0 mi West 9.2 mph - N/A   Overcast
7:56 AM 60.8 °F 59.9 °F 97% 29.89 in 7.0 mi West 8.1 mph - N/A   Overcast
8:15 AM 61.0 °F 59.5 °F 95% 29.89 in 10.0 mi WNW 9.2 mph - N/A   Overcast
8:37 AM 61.3 °F 59.5 °F 94% 29.91 in 10.0 mi West 8.1 mph - N/A   Overcast
8:56 AM 61.0 °F 59.5 °F 95% 29.92 in 2.0 mi West 9.2 mph - N/A   Overcast
9:16 AM 60.4 °F 59.7 °F 97% 29.93 in 2.0 mi West 11.5 mph - N/A   Overcast
9:35 AM 60.8 °F 59.2 °F 94% 29.94 in 10.0 mi West 11.5 mph - N/A   Overcast
9:36 AM 60.8 °F 59.0 °F 94% 29.94 in 10.0 mi West 11.5 mph - N/A   Overcast
9:55 AM 61.3 °F 59.2 °F 93% 29.93 in 10.0 mi West 10.4 mph - N/A   Overcast
9:59 AM 61.7 °F 59.5 °F 93% 29.93 in 10.0 mi WNW 8.1 mph - N/A   Overcast
10:17 AM 62.8 °F 59.7 °F 90% 29.94 in 10.0 mi West 11.5 mph - N/A   Overcast
10:36 AM 63.5 °F 59.2 °F 86% 29.94 in 10.0 mi WNW 9.2 mph - N/A   Overcast
10:55 AM 64.6 °F 59.4 °F 83% 29.95 in 10.0 mi West 8.1 mph - N/A   Overcast
10:56 AM 64.6 °F 59.2 °F 83% 29.95 in 10.0 mi West 8.1 mph - N/A   Overcast
11:15 AM 64.6 °F 59.2 °F 83% 29.96 in 10.0 mi NW 11.5 mph - N/A   Overcast
11:16 AM 64.6 °F 59.0 °F 82% 29.96 in 10.0 mi WNW 10.4 mph - N/A   Overcast
11:38 AM 65.3 °F 59.0 °F 80% 29.97 in 10.0 mi WNW 9.2 mph - N/A   Overcast
12:16 PM 66.6 °F 59.2 °F 77% 29.98 in 10.0 mi WNW 8.1 mph - N/A   Mostly Cloudy
12:35 PM 68.0 °F 59.7 °F 75% 29.99 in 10.0 mi West 9.2 mph - N/A   Scattered Clouds
12:36 PM 68.0 °F 59.9 °F 75% 29.99 in 10.0 mi WNW 9.2 mph - N/A   Scattered Clouds
12:55 PM 68.4 °F 59.9 °F 74% 29.99 in 10.0 mi WNW 9.2 mph - N/A   Scattered Clouds
12:59 PM 68.5 °F 59.4 °F 72% 29.99 in 10.0 mi WNW 9.2 mph - N/A   Scattered Clouds
1:18 PM 68.5 °F 59.0 °F 72% 29.99 in 10.0 mi WNW 8.1 mph - N/A   Scattered Clouds
1:36 PM 68.7 °F 59.0 °F 71% 29.99 in 10.0 mi West 10.4 mph - N/A   Scattered Clouds
1:55 PM 69.1 °F 59.5 °F 72% 30.00 in 10.0 mi WNW 9.2 mph 17.3 mph N/A   Scattered Clouds
1:56 PM 69.1 °F 59.4 °F 71% 30.00 in 10.0 mi WNW 9.2 mph 17.3 mph N/A   Scattered Clouds
2:15 PM 68.9 °F 59.4 °F 72% 30.01 in 10.0 mi WNW 9.2 mph 12.7 mph N/A   Scattered Clouds
2:38 PM 70.2 °F 59.7 °F 69% 30.02 in 10.0 mi West 10.4 mph 16.1 mph N/A   Mostly Cloudy
2:57 PM 69.8 °F 59.5 °F 70% 30.02 in 10.0 mi West 6.9 mph - N/A   Mostly Cloudy
3:16 PM 70.3 °F 59.7 °F 69% 30.02 in 10.0 mi West 6.9 mph - N/A   Mostly Cloudy
3:35 PM 70.2 °F 59.7 °F 69% 30.03 in 10.0 mi West 8.1 mph - N/A   Mostly Cloudy
3:55 PM 70.0 °F 59.0 °F 68% 30.02 in 10.0 mi West 9.2 mph - N/A   Scattered Clouds
3:59 PM 70.2 °F 59.5 °F 69% 30.02 in 10.0 mi West 5.8 mph - N/A   Scattered Clouds
4:17 PM 70.2 °F 59.2 °F 68% 30.02 in 10.0 mi WNW 8.1 mph - N/A   Scattered Clouds
4:35 PM 70.2 °F 58.8 °F 67% 30.02 in 10.0 mi NW 5.8 mph - N/A   Clear
4:55 PM 70.2 °F 58.8 °F 67% 30.02 in 10.0 mi West 6.9 mph - N/A   Clear
4:56 PM 70.2 °F 59.0 °F 68% 30.02 in 10.0 mi West 6.9 mph - N/A   Clear
5:15 PM 70.5 °F 59.5 °F 68% 30.02 in 10.0 mi West 8.1 mph - N/A   Scattered Clouds
5:16 PM 70.5 °F 59.4 °F 68% 30.02 in 10.0 mi West 8.1 mph - N/A   Scattered Clouds
5:38 PM 69.8 °F 59.0 °F 68% 30.02 in 10.0 mi NW 5.8 mph - N/A   Clear
5:57 PM 69.8 °F 58.6 °F 68% 30.02 in 10.0 mi NNW 6.9 mph - N/A   Clear
6:16 PM 69.1 °F 59.0 °F 70% 30.03 in 10.0 mi NW 8.1 mph - N/A   Clear
6:35 PM 67.5 °F 58.5 °F 73% 30.03 in 10.0 mi NNW 8.1 mph - N/A   Clear
6:36 PM 67.3 °F 58.5 °F 73% 30.03 in 10.0 mi NNW 9.2 mph - N/A   Clear
6:55 PM 65.8 °F 58.5 °F 77% 30.03 in 10.0 mi NNW 4.6 mph - N/A   Clear
7:17 PM 64.4 °F 58.8 °F 82% 30.03 in 10.0 mi Calm Calm - N/A   Clear
7:36 PM 64.6 °F 58.6 °F 81% 30.04 in 10.0 mi Calm Calm - N/A   Clear
7:55 PM 61.9 °F 58.3 °F 88% 30.05 in 10.0 mi Calm Calm - N/A   Scattered Clouds
7:56 PM 61.9 °F 58.3 °F 88% 30.05 in 10.0 mi Calm Calm - N/A   Scattered Clouds
8:15 PM 62.2 °F 58.5 °F 87% 30.06 in 10.0 mi Calm Calm - N/A   Overcast
8:19 PM 62.1 °F 58.3 °F 87% 30.05 in 10.0 mi Calm Calm - N/A   Mostly Cloudy
8:37 PM 61.9 °F 58.3 °F 88% 30.05 in 10.0 mi NNE 3.5 mph - N/A   Scattered Clouds
8:55 PM 61.7 °F 58.1 °F 88% 30.06 in 10.0 mi Calm Calm - N/A   Clear
9:15 PM 60.1 °F 57.7 °F 92% 30.07 in 10.0 mi NNW 3.5 mph - N/A   Clear
9:16 PM 60.1 °F 57.7 °F 92% 30.07 in 10.0 mi NNW 3.5 mph - N/A   Clear
9:35 PM 60.1 °F 57.6 °F 91% 30.07 in 10.0 mi North 5.8 mph - N/A   Clear
9:58 PM 59.7 °F 56.5 °F 89% 30.08 in 10.0 mi North 3.5 mph - N/A   Clear
10:17 PM 59.9 °F 56.3 °F 88% 30.09 in 10.0 mi North 4.6 mph - N/A   Clear
10:36 PM 59.4 °F 56.3 °F 90% 30.09 in 10.0 mi North 5.8 mph - N/A   Clear
10:55 PM 59.4 °F 56.3 °F 90% 30.09 in 10.0 mi North 4.6 mph - N/A   Clear
10:56 PM 59.4 °F 56.3 °F 90% 30.09 in 10.0 mi North 4.6 mph - N/A   Clear
11:15 PM 59.4 °F 56.3 °F 90% 30.09 in 10.0 mi North 4.6 mph - N/A   Clear
11:36 PM 59.0 °F 55.8 °F 89% 30.09 in 10.0 mi NNE 3.5 mph - N/A   Clear
11:56 PM 58.6 °F 55.6 °F 90% 30.09 in 10.0 mi NNE 3.5 mph - N/A   Clear